sensor_id;sensor_type;location;lat;lon;timestamp;temperature;humidity
49222;DHT22;35047;37.588;-122.048;2024-03-02T00:00:51;17.70;77.60
49222;DHT22;35047;37.588;-122.048;2024-03-02T00:03:18;17.70;78.50
49222;DHT22;35047;37.588;-122.048;2024-03-02T00:05:49;17.70;78.60
49222;DHT22;35047;37.588;-122.048;2024-03-02T00:08:24;17.70;78.70
49222;DHT22;35047;37.588;-122.048;2024-03-02T00:10:59;17.70;78.50
49222;DHT22;35047;37.588;-122.048;2024-03-02T00:13:26;17.70;78.20
49222;DHT22;35047;37.588;-122.048;2024-03-02T00:15:56;17.60;78.10
49222;DHT22;35047;37.588;-122.048;2024-03-02T00:18:34;17.50;78.50
49222;DHT22;35047;37.588;-122.048;2024-03-02T00:21:01;17.50;78.50
49222;DHT22;35047;37.588;-122.048;2024-03-02T00:23:30;17.50;78.30
49222;DHT22;35047;37.588;-122.048;2024-03-02T00:26:00;17.50;78.00
49222;DHT22;35047;37.588;-122.048;2024-03-02T00:28:27;17.50;78.70
49222;DHT22;35047;37.588;-122.048;2024-03-02T00:33:33;17.50;77.20
49222;DHT22;35047;37.588;-122.048;2024-03-02T00:36:04;17.50;78.20
49222;DHT22;35047;37.588;-122.048;2024-03-02T00:38:31;17.50;78.30
49222;DHT22;35047;37.588;-122.048;2024-03-02T00:40:59;17.50;78.20
49222;DHT22;35047;37.588;-122.048;2024-03-02T00:45:56;17.50;78.50
49222;DHT22;35047;37.588;-122.048;2024-03-02T00:48:23;17.50;78.40
49222;DHT22;35047;37.588;-122.048;2024-03-02T00:50:53;17.50;80.10
49222;DHT22;35047;37.588;-122.048;2024-03-02T00:53:23;17.40;82.70
49222;DHT22;35047;37.588;-122.048;2024-03-02T00:55:53;17.40;84.50
49222;DHT22;35047;37.588;-122.048;2024-03-02T00:58:20;17.40;85.90
49222;DHT22;35047;37.588;-122.048;2024-03-02T01:00:46;17.20;86.60
49222;DHT22;35047;37.588;-122.048;2024-03-02T01:03:13;17.20;86.90
49222;DHT22;35047;37.588;-122.048;2024-03-02T01:05:43;17.20;88.00
49222;DHT22;35047;37.588;-122.048;2024-03-02T01:08:10;17.10;87.80
49222;DHT22;35047;37.588;-122.048;2024-03-02T01:10:37;17.10;89.70
49222;DHT22;35047;37.588;-122.048;2024-03-02T01:13:03;17.10;90.20
49222;DHT22;35047;37.588;-122.048;2024-03-02T01:15:30;17.00;90.40
49222;DHT22;35047;37.588;-122.048;2024-03-02T01:17:57;17.00;90.80
49222;DHT22;35047;37.588;-122.048;2024-03-02T01:20:23;16.90;91.00
49222;DHT22;35047;37.588;-122.048;2024-03-02T01:22:51;16.90;91.30
49222;DHT22;35047;37.588;-122.048;2024-03-02T01:25:18;16.90;91.60
49222;DHT22;35047;37.588;-122.048;2024-03-02T01:27:44;16.80;91.90
49222;DHT22;35047;37.588;-122.048;2024-03-02T01:30:11;16.80;91.90
49222;DHT22;35047;37.588;-122.048;2024-03-02T01:32:40;16.80;92.30
49222;DHT22;35047;37.588;-122.048;2024-03-02T01:35:07;16.80;92.10
49222;DHT22;35047;37.588;-122.048;2024-03-02T01:37:34;16.70;92.00
49222;DHT22;35047;37.588;-122.048;2024-03-02T01:40:01;16.60;91.90
49222;DHT22;35047;37.588;-122.048;2024-03-02T01:42:28;16.60;92.20
49222;DHT22;35047;37.588;-122.048;2024-03-02T01:44:56;16.60;92.20
49222;DHT22;35047;37.588;-122.048;2024-03-02T01:47:23;16.60;92.20
49222;DHT22;35047;37.588;-122.048;2024-03-02T01:49:49;16.50;92.20
49222;DHT22;35047;37.588;-122.048;2024-03-02T01:52:16;16.30;92.30
49222;DHT22;35047;37.588;-122.048;2024-03-02T01:54:43;16.30;92.70
49222;DHT22;35047;37.588;-122.048;2024-03-02T01:57:10;16.30;92.50
49222;DHT22;35047;37.588;-122.048;2024-03-02T01:59:37;16.20;92.60
49222;DHT22;35047;37.588;-122.048;2024-03-02T02:02:03;16.30;92.70
49222;DHT22;35047;37.588;-122.048;2024-03-02T02:04:30;16.30;92.60
49222;DHT22;35047;37.588;-122.048;2024-03-02T02:06:57;16.20;92.50
49222;DHT22;35047;37.588;-122.048;2024-03-02T02:09:23;16.10;92.60
49222;DHT22;35047;37.588;-122.048;2024-03-02T02:11:51;16.10;92.80
49222;DHT22;35047;37.588;-122.048;2024-03-02T02:14:18;16.10;93.10
49222;DHT22;35047;37.588;-122.048;2024-03-02T02:16:44;16.10;93.10
49222;DHT22;35047;37.588;-122.048;2024-03-02T02:19:11;16.20;92.80
49222;DHT22;35047;37.588;-122.048;2024-03-02T02:21:38;16.20;92.80
49222;DHT22;35047;37.588;-122.048;2024-03-02T02:24:08;16.10;92.40
49222;DHT22;35047;37.588;-122.048;2024-03-02T02:26:34;16.10;92.70
49222;DHT22;35047;37.588;-122.048;2024-03-02T02:29:01;16.20;92.90
49222;DHT22;35047;37.588;-122.048;2024-03-02T02:31:37;16.20;92.60
49222;DHT22;35047;37.588;-122.048;2024-03-02T02:34:03;16.10;92.50
49222;DHT22;35047;37.588;-122.048;2024-03-02T02:36:30;16.20;92.70
49222;DHT22;35047;37.588;-122.048;2024-03-02T02:38:58;16.20;92.60
49222;DHT22;35047;37.588;-122.048;2024-03-02T02:41:26;16.20;92.90
49222;DHT22;35047;37.588;-122.048;2024-03-02T02:43:53;16.20;93.00
49222;DHT22;35047;37.588;-122.048;2024-03-02T02:46:19;16.10;93.40
49222;DHT22;35047;37.588;-122.048;2024-03-02T02:48:46;16.10;93.50
49222;DHT22;35047;37.588;-122.048;2024-03-02T02:51:12;16.10;93.50
49222;DHT22;35047;37.588;-122.048;2024-03-02T02:53:39;16.10;93.70
49222;DHT22;35047;37.588;-122.048;2024-03-02T02:56:08;16.00;94.10
49222;DHT22;35047;37.588;-122.048;2024-03-02T02:58:35;16.10;94.30
49222;DHT22;35047;37.588;-122.048;2024-03-02T03:01:02;16.00;94.30
49222;DHT22;35047;37.588;-122.048;2024-03-02T03:03:28;16.00;94.50
49222;DHT22;35047;37.588;-122.048;2024-03-02T03:05:55;16.00;94.60
49222;DHT22;35047;37.588;-122.048;2024-03-02T03:08:21;16.00;94.70
49222;DHT22;35047;37.588;-122.048;2024-03-02T03:10:49;15.90;94.70
49222;DHT22;35047;37.588;-122.048;2024-03-02T03:13:15;15.90;94.80
49222;DHT22;35047;37.588;-122.048;2024-03-02T03:15:42;15.90;94.80
49222;DHT22;35047;37.588;-122.048;2024-03-02T03:18:09;15.90;94.50
49222;DHT22;35047;37.588;-122.048;2024-03-02T03:20:36;15.90;94.70
49222;DHT22;35047;37.588;-122.048;2024-03-02T03:23:03;15.80;94.10
49222;DHT22;35047;37.588;-122.048;2024-03-02T03:25:33;15.80;94.10
49222;DHT22;35047;37.588;-122.048;2024-03-02T03:27:59;15.70;93.90
49222;DHT22;35047;37.588;-122.048;2024-03-02T03:30:27;15.70;93.80
49222;DHT22;35047;37.588;-122.048;2024-03-02T03:32:53;15.80;93.80
49222;DHT22;35047;37.588;-122.048;2024-03-02T03:35:20;15.80;94.00
49222;DHT22;35047;37.588;-122.048;2024-03-02T03:37:46;15.80;94.00
49222;DHT22;35047;37.588;-122.048;2024-03-02T03:40:13;15.70;93.60
49222;DHT22;35047;37.588;-122.048;2024-03-02T03:42:40;15.80;93.90
49222;DHT22;35047;37.588;-122.048;2024-03-02T03:45:07;15.70;93.90
49222;DHT22;35047;37.588;-122.048;2024-03-02T03:47:33;15.70;93.90
49222;DHT22;35047;37.588;-122.048;2024-03-02T03:50:00;15.80;94.10
49222;DHT22;35047;37.588;-122.048;2024-03-02T03:52:26;15.70;93.80
49222;DHT22;35047;37.588;-122.048;2024-03-02T03:54:53;15.80;94.00
49222;DHT22;35047;37.588;-122.048;2024-03-02T03:57:19;15.80;94.10
49222;DHT22;35047;37.588;-122.048;2024-03-02T03:59:46;15.80;93.60
49222;DHT22;35047;37.588;-122.048;2024-03-02T04:02:12;15.80;93.70
49222;DHT22;35047;37.588;-122.048;2024-03-02T04:04:39;15.90;93.70
49222;DHT22;35047;37.588;-122.048;2024-03-02T04:07:05;15.90;93.60
49222;DHT22;35047;37.588;-122.048;2024-03-02T04:09:32;15.80;93.40
49222;DHT22;35047;37.588;-122.048;2024-03-02T04:11:58;15.80;93.20
49222;DHT22;35047;37.588;-122.048;2024-03-02T04:14:25;15.80;93.30
49222;DHT22;35047;37.588;-122.048;2024-03-02T04:16:51;15.80;93.40
49222;DHT22;35047;37.588;-122.048;2024-03-02T04:19:18;15.80;93.30
49222;DHT22;35047;37.588;-122.048;2024-03-02T04:21:44;15.80;93.30
49222;DHT22;35047;37.588;-122.048;2024-03-02T04:24:11;15.90;93.20
49222;DHT22;35047;37.588;-122.048;2024-03-02T04:26:37;15.80;93.30
49222;DHT22;35047;37.588;-122.048;2024-03-02T04:29:04;15.80;93.40
49222;DHT22;35047;37.588;-122.048;2024-03-02T04:31:30;15.80;93.40
49222;DHT22;35047;37.588;-122.048;2024-03-02T04:33:56;15.80;93.30
49222;DHT22;35047;37.588;-122.048;2024-03-02T04:36:23;15.80;93.50
49222;DHT22;35047;37.588;-122.048;2024-03-02T04:38:49;15.80;93.40
49222;DHT22;35047;37.588;-122.048;2024-03-02T04:41:16;15.90;93.40
49222;DHT22;35047;37.588;-122.048;2024-03-02T04:43:43;15.90;93.30
49222;DHT22;35047;37.588;-122.048;2024-03-02T04:46:09;15.90;93.40
49222;DHT22;35047;37.588;-122.048;2024-03-02T04:48:36;15.90;93.20
49222;DHT22;35047;37.588;-122.048;2024-03-02T04:51:03;15.90;93.30
49222;DHT22;35047;37.588;-122.048;2024-03-02T04:53:29;15.80;93.10
49222;DHT22;35047;37.588;-122.048;2024-03-02T04:55:56;15.80;92.90
49222;DHT22;35047;37.588;-122.048;2024-03-02T04:58:41;15.80;93.10
49222;DHT22;35047;37.588;-122.048;2024-03-02T05:01:07;15.80;92.90
49222;DHT22;35047;37.588;-122.048;2024-03-02T05:03:33;15.80;92.40
49222;DHT22;35047;37.588;-122.048;2024-03-02T05:06:00;15.70;92.00
49222;DHT22;35047;37.588;-122.048;2024-03-02T05:08:27;15.70;91.90
49222;DHT22;35047;37.588;-122.048;2024-03-02T05:10:53;15.70;92.00
49222;DHT22;35047;37.588;-122.048;2024-03-02T05:13:20;15.70;92.10
49222;DHT22;35047;37.588;-122.048;2024-03-02T05:15:47;15.70;92.30
49222;DHT22;35047;37.588;-122.048;2024-03-02T05:18:13;15.70;92.20
49222;DHT22;35047;37.588;-122.048;2024-03-02T05:20:40;15.70;92.00
49222;DHT22;35047;37.588;-122.048;2024-03-02T05:23:07;15.70;92.10
49222;DHT22;35047;37.588;-122.048;2024-03-02T05:25:33;15.70;92.20
49222;DHT22;35047;37.588;-122.048;2024-03-02T05:28:01;15.70;92.20
49222;DHT22;35047;37.588;-122.048;2024-03-02T05:30:27;15.60;92.40
49222;DHT22;35047;37.588;-122.048;2024-03-02T05:32:53;15.70;92.70
49222;DHT22;35047;37.588;-122.048;2024-03-02T05:35:20;15.60;92.60
49222;DHT22;35047;37.588;-122.048;2024-03-02T05:37:46;15.60;92.40
49222;DHT22;35047;37.588;-122.048;2024-03-02T05:40:15;15.50;92.80
49222;DHT22;35047;37.588;-122.048;2024-03-02T05:42:42;15.60;93.10
49222;DHT22;35047;37.588;-122.048;2024-03-02T05:45:08;15.60;93.00
49222;DHT22;35047;37.588;-122.048;2024-03-02T05:47:35;15.60;93.00
49222;DHT22;35047;37.588;-122.048;2024-03-02T05:50:02;15.60;93.00
49222;DHT22;35047;37.588;-122.048;2024-03-02T05:52:29;15.60;93.10
49222;DHT22;35047;37.588;-122.048;2024-03-02T05:54:56;15.70;93.30
49222;DHT22;35047;37.588;-122.048;2024-03-02T05:57:22;15.80;93.30
49222;DHT22;35047;37.588;-122.048;2024-03-02T06:00:11;15.80;93.30
49222;DHT22;35047;37.588;-122.048;2024-03-02T06:02:41;15.70;93.50
49222;DHT22;35047;37.588;-122.048;2024-03-02T06:05:07;15.60;93.60
49222;DHT22;35047;37.588;-122.048;2024-03-02T06:07:34;15.40;92.90
49222;DHT22;35047;37.588;-122.048;2024-03-02T06:10:01;15.30;93.30
49222;DHT22;35047;37.588;-122.048;2024-03-02T06:12:28;15.10;93.70
49222;DHT22;35047;37.588;-122.048;2024-03-02T06:14:57;15.10;94.30
49222;DHT22;35047;37.588;-122.048;2024-03-02T06:17:23;15.00;94.60
49222;DHT22;35047;37.588;-122.048;2024-03-02T06:19:50;15.00;94.90
49222;DHT22;35047;37.588;-122.048;2024-03-02T06:22:16;14.90;95.00
49222;DHT22;35047;37.588;-122.048;2024-03-02T06:24:42;14.90;95.10
49222;DHT22;35047;37.588;-122.048;2024-03-02T06:27:09;14.80;95.00
49222;DHT22;35047;37.588;-122.048;2024-03-02T06:29:36;14.70;95.00
49222;DHT22;35047;37.588;-122.048;2024-03-02T06:32:03;14.70;95.10
49222;DHT22;35047;37.588;-122.048;2024-03-02T06:34:29;14.70;95.20
49222;DHT22;35047;37.588;-122.048;2024-03-02T06:37:01;14.60;94.90
49222;DHT22;35047;37.588;-122.048;2024-03-02T06:39:28;14.60;94.60
49222;DHT22;35047;37.588;-122.048;2024-03-02T06:41:54;14.60;94.50
49222;DHT22;35047;37.588;-122.048;2024-03-02T06:44:21;14.60;94.40
49222;DHT22;35047;37.588;-122.048;2024-03-02T06:46:47;14.60;94.50
49222;DHT22;35047;37.588;-122.048;2024-03-02T06:49:14;14.60;94.40
49222;DHT22;35047;37.588;-122.048;2024-03-02T06:51:40;14.60;94.50
49222;DHT22;35047;37.588;-122.048;2024-03-02T06:54:08;14.60;94.50
49222;DHT22;35047;37.588;-122.048;2024-03-02T06:56:37;14.60;94.40
49222;DHT22;35047;37.588;-122.048;2024-03-02T06:59:05;14.60;94.20
49222;DHT22;35047;37.588;-122.048;2024-03-02T07:01:31;14.70;94.40
49222;DHT22;35047;37.588;-122.048;2024-03-02T07:03:58;14.70;94.60
49222;DHT22;35047;37.588;-122.048;2024-03-02T07:06:24;14.70;94.60
49222;DHT22;35047;37.588;-122.048;2024-03-02T07:08:51;14.80;94.70
49222;DHT22;35047;37.588;-122.048;2024-03-02T07:11:17;14.80;94.40
49222;DHT22;35047;37.588;-122.048;2024-03-02T07:13:44;14.80;93.90
49222;DHT22;35047;37.588;-122.048;2024-03-02T07:16:10;14.80;94.00
49222;DHT22;35047;37.588;-122.048;2024-03-02T07:18:58;14.80;93.70
49222;DHT22;35047;37.588;-122.048;2024-03-02T07:21:27;14.80;93.80
49222;DHT22;35047;37.588;-122.048;2024-03-02T07:23:54;14.80;93.80
49222;DHT22;35047;37.588;-122.048;2024-03-02T07:26:21;14.80;93.70
49222;DHT22;35047;37.588;-122.048;2024-03-02T07:28:48;14.80;93.70
49222;DHT22;35047;37.588;-122.048;2024-03-02T07:31:15;14.80;93.70
49222;DHT22;35047;37.588;-122.048;2024-03-02T07:33:43;14.80;93.40
49222;DHT22;35047;37.588;-122.048;2024-03-02T07:36:10;14.80;94.30
49222;DHT22;35047;37.588;-122.048;2024-03-02T07:38:36;14.90;94.30
49222;DHT22;35047;37.588;-122.048;2024-03-02T07:41:03;14.90;94.50
49222;DHT22;35047;37.588;-122.048;2024-03-02T07:43:30;14.90;94.70
49222;DHT22;35047;37.588;-122.048;2024-03-02T07:45:59;14.90;94.60
49222;DHT22;35047;37.588;-122.048;2024-03-02T07:48:26;14.80;94.40
49222;DHT22;35047;37.588;-122.048;2024-03-02T07:50:53;14.80;94.70
49222;DHT22;35047;37.588;-122.048;2024-03-02T07:53:19;14.70;94.30
49222;DHT22;35047;37.588;-122.048;2024-03-02T07:55:46;14.70;94.30
49222;DHT22;35047;37.588;-122.048;2024-03-02T07:58:12;14.60;94.40
49222;DHT22;35047;37.588;-122.048;2024-03-02T08:00:40;14.60;94.40
49222;DHT22;35047;37.588;-122.048;2024-03-02T08:03:07;14.60;94.60
49222;DHT22;35047;37.588;-122.048;2024-03-02T08:05:37;14.60;94.70
49222;DHT22;35047;37.588;-122.048;2024-03-02T08:08:05;14.50;95.10
49222;DHT22;35047;37.588;-122.048;2024-03-02T08:10:31;14.50;95.30
49222;DHT22;35047;37.588;-122.048;2024-03-02T08:12:59;14.50;95.40
49222;DHT22;35047;37.588;-122.048;2024-03-02T08:15:26;14.50;95.50
49222;DHT22;35047;37.588;-122.048;2024-03-02T08:17:52;14.50;95.60
49222;DHT22;35047;37.588;-122.048;2024-03-02T08:20:19;14.60;95.60
49222;DHT22;35047;37.588;-122.048;2024-03-02T08:22:45;14.60;95.70
49222;DHT22;35047;37.588;-122.048;2024-03-02T08:25:13;14.60;95.60
49222;DHT22;35047;37.588;-122.048;2024-03-02T08:27:40;14.60;95.60
49222;DHT22;35047;37.588;-122.048;2024-03-02T08:30:07;14.70;95.70
49222;DHT22;35047;37.588;-122.048;2024-03-02T08:32:34;14.70;96.10
49222;DHT22;35047;37.588;-122.048;2024-03-02T08:35:01;14.80;95.90
49222;DHT22;35047;37.588;-122.048;2024-03-02T08:37:27;14.70;95.70
49222;DHT22;35047;37.588;-122.048;2024-03-02T08:39:54;14.70;95.80
49222;DHT22;35047;37.588;-122.048;2024-03-02T08:42:21;14.70;95.50
49222;DHT22;35047;37.588;-122.048;2024-03-02T08:44:48;14.70;95.20
49222;DHT22;35047;37.588;-122.048;2024-03-02T08:47:15;14.80;95.20
49222;DHT22;35047;37.588;-122.048;2024-03-02T08:49:41;14.70;95.40
49222;DHT22;35047;37.588;-122.048;2024-03-02T08:52:08;14.80;95.00
49222;DHT22;35047;37.588;-122.048;2024-03-02T08:54:35;14.80;95.40
49222;DHT22;35047;37.588;-122.048;2024-03-02T08:57:02;14.70;95.30
49222;DHT22;35047;37.588;-122.048;2024-03-02T08:59:28;14.80;95.50
49222;DHT22;35047;37.588;-122.048;2024-03-02T09:01:55;14.80;95.90
49222;DHT22;35047;37.588;-122.048;2024-03-02T09:04:21;14.80;95.80
49222;DHT22;35047;37.588;-122.048;2024-03-02T09:06:48;14.90;95.80
49222;DHT22;35047;37.588;-122.048;2024-03-02T09:09:14;14.80;95.70
49222;DHT22;35047;37.588;-122.048;2024-03-02T09:11:41;14.90;95.90
49222;DHT22;35047;37.588;-122.048;2024-03-02T09:14:07;14.90;95.90
49222;DHT22;35047;37.588;-122.048;2024-03-02T09:16:34;14.90;95.70
49222;DHT22;35047;37.588;-122.048;2024-03-02T09:19:00;14.80;95.50
49222;DHT22;35047;37.588;-122.048;2024-03-02T09:21:27;14.80;95.50
49222;DHT22;35047;37.588;-122.048;2024-03-02T09:23:56;14.80;95.50
49222;DHT22;35047;37.588;-122.048;2024-03-02T09:26:22;14.80;95.50
49222;DHT22;35047;37.588;-122.048;2024-03-02T09:28:51;14.80;95.00
49222;DHT22;35047;37.588;-122.048;2024-03-02T09:31:17;14.70;94.90
49222;DHT22;35047;37.588;-122.048;2024-03-02T09:33:44;14.70;95.20
49222;DHT22;35047;37.588;-122.048;2024-03-02T09:36:23;14.70;95.10
49222;DHT22;35047;37.588;-122.048;2024-03-02T09:38:49;14.60;95.00
49222;DHT22;35047;37.588;-122.048;2024-03-02T09:41:16;14.70;95.40
49222;DHT22;35047;37.588;-122.048;2024-03-02T09:43:43;14.70;95.20
49222;DHT22;35047;37.588;-122.048;2024-03-02T09:46:10;14.70;94.90
49222;DHT22;35047;37.588;-122.048;2024-03-02T09:48:37;14.60;95.10
49222;DHT22;35047;37.588;-122.048;2024-03-02T09:51:04;14.50;94.70
49222;DHT22;35047;37.588;-122.048;2024-03-02T09:53:33;14.50;95.00
49222;DHT22;35047;37.588;-122.048;2024-03-02T09:56:02;14.50;95.10
49222;DHT22;35047;37.588;-122.048;2024-03-02T09:58:29;14.50;94.50
49222;DHT22;35047;37.588;-122.048;2024-03-02T10:00:56;14.40;94.30
49222;DHT22;35047;37.588;-122.048;2024-03-02T10:03:25;14.40;94.20
49222;DHT22;35047;37.588;-122.048;2024-03-02T10:05:53;14.20;93.40
49222;DHT22;35047;37.588;-122.048;2024-03-02T10:08:19;14.10;93.80
49222;DHT22;35047;37.588;-122.048;2024-03-02T10:10:46;14.10;93.90
49222;DHT22;35047;37.588;-122.048;2024-03-02T10:13:13;14.10;93.60
49222;DHT22;35047;37.588;-122.048;2024-03-02T10:15:41;14.00;93.70
49222;DHT22;35047;37.588;-122.048;2024-03-02T10:18:11;14.00;93.90
49222;DHT22;35047;37.588;-122.048;2024-03-02T10:20:39;13.90;93.80
49222;DHT22;35047;37.588;-122.048;2024-03-02T10:23:15;13.90;94.10
49222;DHT22;35047;37.588;-122.048;2024-03-02T10:25:44;13.90;94.20
49222;DHT22;35047;37.588;-122.048;2024-03-02T10:28:11;13.80;94.40
49222;DHT22;35047;37.588;-122.048;2024-03-02T10:30:37;13.90;94.70
49222;DHT22;35047;37.588;-122.048;2024-03-02T10:33:05;13.90;94.80
49222;DHT22;35047;37.588;-122.048;2024-03-02T10:35:33;14.00;95.10
49222;DHT22;35047;37.588;-122.048;2024-03-02T10:38:04;14.00;95.00
49222;DHT22;35047;37.588;-122.048;2024-03-02T10:40:32;14.00;95.30
49222;DHT22;35047;37.588;-122.048;2024-03-02T10:43:00;14.00;95.40
49222;DHT22;35047;37.588;-122.048;2024-03-02T10:45:29;14.10;95.60
49222;DHT22;35047;37.588;-122.048;2024-03-02T10:47:56;14.00;95.50
49222;DHT22;35047;37.588;-122.048;2024-03-02T10:50:24;14.00;95.50
49222;DHT22;35047;37.588;-122.048;2024-03-02T10:52:51;14.00;95.70
49222;DHT22;35047;37.588;-122.048;2024-03-02T10:55:17;14.00;95.70
49222;DHT22;35047;37.588;-122.048;2024-03-02T10:57:54;14.00;95.40
49222;DHT22;35047;37.588;-122.048;2024-03-02T11:00:25;14.00;95.40
49222;DHT22;35047;37.588;-122.048;2024-03-02T11:03:05;14.00;95.00
49222;DHT22;35047;37.588;-122.048;2024-03-02T11:05:36;13.90;95.10
49222;DHT22;35047;37.588;-122.048;2024-03-02T11:08:10;13.90;95.10
49222;DHT22;35047;37.588;-122.048;2024-03-02T11:13:14;13.90;94.90
49222;DHT22;35047;37.588;-122.048;2024-03-02T11:15:45;13.90;94.90
49222;DHT22;35047;37.588;-122.048;2024-03-02T11:18:12;13.90;95.00
49222;DHT22;35047;37.588;-122.048;2024-03-02T11:20:39;13.90;94.90
49222;DHT22;35047;37.588;-122.048;2024-03-02T11:23:08;13.80;94.80
49222;DHT22;35047;37.588;-122.048;2024-03-02T11:25:35;13.80;95.00
49222;DHT22;35047;37.588;-122.048;2024-03-02T11:28:03;13.80;95.10
49222;DHT22;35047;37.588;-122.048;2024-03-02T11:33:07;13.70;94.90
49222;DHT22;35047;37.588;-122.048;2024-03-02T11:35:35;13.70;94.80
49222;DHT22;35047;37.588;-122.048;2024-03-02T11:38:02;13.70;94.80
49222;DHT22;35047;37.588;-122.048;2024-03-02T11:40:29;13.70;95.10
49222;DHT22;35047;37.588;-122.048;2024-03-02T11:43:06;13.80;95.30
49222;DHT22;35047;37.588;-122.048;2024-03-02T11:45:42;13.80;95.30
49222;DHT22;35047;37.588;-122.048;2024-03-02T11:48:14;13.80;95.10
49222;DHT22;35047;37.588;-122.048;2024-03-02T11:50:52;13.80;95.00
49222;DHT22;35047;37.588;-122.048;2024-03-02T11:53:20;13.80;94.60
49222;DHT22;35047;37.588;-122.048;2024-03-02T11:55:47;13.80;94.30
49222;DHT22;35047;37.588;-122.048;2024-03-02T11:58:16;13.80;94.10
49222;DHT22;35047;37.588;-122.048;2024-03-02T12:00:56;13.70;93.90
49222;DHT22;35047;37.588;-122.048;2024-03-02T12:03:23;13.70;93.60
49222;DHT22;35047;37.588;-122.048;2024-03-02T12:05:54;13.70;93.70
49222;DHT22;35047;37.588;-122.048;2024-03-02T12:08:21;13.60;93.20
49222;DHT22;35047;37.588;-122.048;2024-03-02T12:10:58;13.60;93.30
49222;DHT22;35047;37.588;-122.048;2024-03-02T12:13:25;13.60;93.30
49222;DHT22;35047;37.588;-122.048;2024-03-02T12:15:54;13.60;93.40
49222;DHT22;35047;37.588;-122.048;2024-03-02T12:18:24;13.50;93.50
49222;DHT22;35047;37.588;-122.048;2024-03-02T12:20:52;13.50;93.20
49222;DHT22;35047;37.588;-122.048;2024-03-02T12:23:19;13.50;93.30
49222;DHT22;35047;37.588;-122.048;2024-03-02T12:25:46;13.50;93.40
49222;DHT22;35047;37.588;-122.048;2024-03-02T12:28:12;13.50;93.90
49222;DHT22;35047;37.588;-122.048;2024-03-02T12:30:39;13.50;92.90
49222;DHT22;35047;37.588;-122.048;2024-03-02T12:33:06;13.40;92.70
49222;DHT22;35047;37.588;-122.048;2024-03-02T12:35:32;13.30;92.90
49222;DHT22;35047;37.588;-122.048;2024-03-02T12:37:58;13.30;93.60
49222;DHT22;35047;37.588;-122.048;2024-03-02T12:40:25;13.30;93.40
49222;DHT22;35047;37.588;-122.048;2024-03-02T12:42:52;13.30;93.40
49222;DHT22;35047;37.588;-122.048;2024-03-02T12:45:18;13.30;93.20
49222;DHT22;35047;37.588;-122.048;2024-03-02T12:47:54;13.40;93.00
49222;DHT22;35047;37.588;-122.048;2024-03-02T12:50:21;13.40;93.40
49222;DHT22;35047;37.588;-122.048;2024-03-02T12:52:54;13.40;93.30
49222;DHT22;35047;37.588;-122.048;2024-03-02T12:55:22;13.40;93.30
49222;DHT22;35047;37.588;-122.048;2024-03-02T12:57:50;13.40;93.30
49222;DHT22;35047;37.588;-122.048;2024-03-02T13:00:18;13.30;93.10
49222;DHT22;35047;37.588;-122.048;2024-03-02T13:02:46;13.40;93.10
49222;DHT22;35047;37.588;-122.048;2024-03-02T13:05:14;13.40;93.10
49222;DHT22;35047;37.588;-122.048;2024-03-02T13:07:41;13.40;93.00
49222;DHT22;35047;37.588;-122.048;2024-03-02T13:10:07;13.50;93.20
49222;DHT22;35047;37.588;-122.048;2024-03-02T13:12:35;13.40;93.30
49222;DHT22;35047;37.588;-122.048;2024-03-02T13:15:03;13.30;93.10
49222;DHT22;35047;37.588;-122.048;2024-03-02T13:17:30;13.30;92.80
49222;DHT22;35047;37.588;-122.048;2024-03-02T13:19:58;13.30;92.80
49222;DHT22;35047;37.588;-122.048;2024-03-02T13:22:26;13.20;92.70
49222;DHT22;35047;37.588;-122.048;2024-03-02T13:24:53;13.20;92.60
49222;DHT22;35047;37.588;-122.048;2024-03-02T13:27:22;13.20;92.60
49222;DHT22;35047;37.588;-122.048;2024-03-02T13:29:49;13.20;92.70
49222;DHT22;35047;37.588;-122.048;2024-03-02T13:32:16;13.20;92.60
49222;DHT22;35047;37.588;-122.048;2024-03-02T13:34:46;13.20;92.60
49222;DHT22;35047;37.588;-122.048;2024-03-02T13:37:13;13.20;92.60
49222;DHT22;35047;37.588;-122.048;2024-03-02T13:39:39;13.20;92.80
49222;DHT22;35047;37.588;-122.048;2024-03-02T13:42:12;13.20;92.80
49222;DHT22;35047;37.588;-122.048;2024-03-02T13:44:42;13.10;92.80
49222;DHT22;35047;37.588;-122.048;2024-03-02T13:47:11;13.10;92.80
49222;DHT22;35047;37.588;-122.048;2024-03-02T13:49:38;13.20;92.60
49222;DHT22;35047;37.588;-122.048;2024-03-02T13:52:09;13.10;92.80
49222;DHT22;35047;37.588;-122.048;2024-03-02T13:54:41;13.10;92.80
49222;DHT22;35047;37.588;-122.048;2024-03-02T13:57:08;13.10;92.70
49222;DHT22;35047;37.588;-122.048;2024-03-02T13:59:35;13.00;92.70
49222;DHT22;35047;37.588;-122.048;2024-03-02T14:02:03;13.00;92.80
49222;DHT22;35047;37.588;-122.048;2024-03-02T14:04:37;13.00;92.90
49222;DHT22;35047;37.588;-122.048;2024-03-02T14:07:05;12.90;92.90
49222;DHT22;35047;37.588;-122.048;2024-03-02T14:09:35;13.00;92.90
49222;DHT22;35047;37.588;-122.048;2024-03-02T14:12:02;12.90;93.00
49222;DHT22;35047;37.588;-122.048;2024-03-02T14:14:29;12.90;93.10
49222;DHT22;35047;37.588;-122.048;2024-03-02T14:16:56;12.90;93.20
49222;DHT22;35047;37.588;-122.048;2024-03-02T14:19:26;12.90;93.30
49222;DHT22;35047;37.588;-122.048;2024-03-02T14:21:53;12.90;93.80
49222;DHT22;35047;37.588;-122.048;2024-03-02T14:24:19;12.80;93.80
49222;DHT22;35047;37.588;-122.048;2024-03-02T14:26:50;12.70;93.50
49222;DHT22;35047;37.588;-122.048;2024-03-02T14:29:16;12.70;93.40
49222;DHT22;35047;37.588;-122.048;2024-03-02T14:31:42;12.70;93.50
49222;DHT22;35047;37.588;-122.048;2024-03-02T14:34:09;12.60;93.40
49222;DHT22;35047;37.588;-122.048;2024-03-02T14:36:36;12.60;93.90
49222;DHT22;35047;37.588;-122.048;2024-03-02T14:39:03;12.60;93.70
49222;DHT22;35047;37.588;-122.048;2024-03-02T14:41:30;12.50;93.70
49222;DHT22;35047;37.588;-122.048;2024-03-02T14:43:56;12.50;93.80
49222;DHT22;35047;37.588;-122.048;2024-03-02T14:46:23;12.50;93.70
49222;DHT22;35047;37.588;-122.048;2024-03-02T14:48:49;12.50;93.60
49222;DHT22;35047;37.588;-122.048;2024-03-02T14:51:16;12.50;93.40
49222;DHT22;35047;37.588;-122.048;2024-03-02T14:53:42;12.50;93.50
49222;DHT22;35047;37.588;-122.048;2024-03-02T14:56:09;12.50;93.50
49222;DHT22;35047;37.588;-122.048;2024-03-02T14:58:36;12.50;93.40
49222;DHT22;35047;37.588;-122.048;2024-03-02T15:01:04;12.50;93.30